Time;durP1;ratioP1;P1;durP2;ratioP2;P2;SDS_P1;SDS_P2;PMS_P1;PMS_P2;Temp;Humidity;BMP_temperature;BMP_pressure;BME280_temperature;BME280_humidity;BME280_pressure;Samples;Min_cycle;Max_cycle;Signal;HPM_P1;HPM_P2
2022/01/05 05:00:23;;;;;;;6.22;2.15;;;2.80;99.90;;;;;;5933400;23;20415;-69
2022/01/05 05:02:50;;;;;;;2.63;1.45;;;2.80;99.90;;;;;;4946007;29;20205;-69
2022/01/05 05:05:16;;;;;;;3.33;1.40;;;2.90;99.90;;;;;;4955215;29;20232;-69
2022/01/05 05:07:44;;;;;;;1.52;1.13;;;2.90;99.90;;;;;;4950345;29;20209;-69
2022/01/05 05:10:10;;;;;;;6.03;1.40;;;2.90;99.90;;;;;;4948497;29;20205;-68
2022/01/05 05:12:37;;;;;;;2.15;1.73;;;2.90;99.90;;;;;;4917769;29;20226;-69
2022/01/05 05:15:04;;;;;;;8.80;1.80;;;2.90;99.90;;;;;;4917313;29;20667;-69
2022/01/05 05:17:32;;;;;;;5.60;1.30;;;2.90;99.90;;;;;;4925289;29;20202;-68
2022/01/05 05:19:59;;;;;;;5.10;1.35;;;3.00;99.90;;;;;;4935781;29;20663;-68
2022/01/05 05:22:26;;;;;;;3.13;1.08;;;3.00;99.90;;;;;;4927625;29;20270;-69
2022/01/05 05:24:52;;;;;;;3.55;1.30;;;3.00;99.90;;;;;;4935399;29;20209;-68
2022/01/05 05:27:20;;;;;;;8.38;2.15;;;3.00;99.90;;;;;;4927533;29;20210;-69
2022/01/05 05:29:46;;;;;;;1.95;1.52;;;3.00;99.90;;;;;;4916560;29;20211;-68
2022/01/05 05:32:13;;;;;;;5.35;1.13;;;3.00;99.90;;;;;;4934382;29;20654;-69
2022/01/05 05:34:41;;;;;;;4.28;1.50;;;3.00;99.90;;;;;;4931762;29;20213;-68
2022/01/05 05:37:08;;;;;;;3.10;1.55;;;3.00;99.90;;;;;;4935163;29;20202;-68
2022/01/05 05:39:34;;;;;;;1.35;1.05;;;3.10;99.90;;;;;;4934843;29;20221;-67
2022/01/05 05:42:01;;;;;;;1.70;1.25;;;3.10;99.90;;;;;;4930901;29;20226;-68
2022/01/05 05:44:28;;;;;;;2.92;1.70;;;3.10;99.90;;;;;;4935265;29;20260;-68
2022/01/05 05:46:55;;;;;;;3.47;1.60;;;3.10;99.90;;;;;;4932103;29;20209;-68
2022/01/05 05:49:22;;;;;;;3.15;1.52;;;3.20;99.90;;;;;;4916797;29;20567;-69
2022/01/05 05:51:49;;;;;;;3.30;1.60;;;3.20;99.90;;;;;;4930674;29;20226;-68
2022/01/05 05:54:16;;;;;;;5.18;1.48;;;3.20;99.90;;;;;;4934688;29;20253;-68
2022/01/05 05:56:43;;;;;;;5.28;1.38;;;3.20;99.90;;;;;;4934779;29;20221;-68
2022/01/05 05:59:10;;;;;;;6.18;1.33;;;3.30;99.90;;;;;;4934749;29;20956;-69
2022/01/05 06:01:36;;;;;;;4.40;1.30;;;3.30;99.90;;;;;;4931750;29;20253;-67
2022/01/05 06:04:03;;;;;;;2.47;1.23;;;3.40;99.90;;;;;;4920402;29;20214;-68
2022/01/05 06:06:30;;;;;;;9.10;2.08;;;3.40;99.90;;;;;;4927196;29;20758;-68
2022/01/05 06:08:58;;;;;;;3.92;1.77;;;3.40;99.90;;;;;;4929317;29;20229;-68
2022/01/05 06:11:25;;;;;;;2.97;1.05;;;3.50;99.90;;;;;;4933988;29;20288;-68
2022/01/05 06:13:52;;;;;;;3.88;1.75;;;3.50;99.90;;;;;;4919233;29;20262;-68
2022/01/05 06:16:19;;;;;;;2.58;1.33;;;3.50;99.90;;;;;;4927919;29;20210;-67
2022/01/05 06:18:46;;;;;;;6.13;1.20;;;3.50;99.90;;;;;;4927876;29;20202;-68
2022/01/05 06:21:12;;;;;;;3.67;1.80;;;3.50;99.90;;;;;;4934886;29;20305;-68
2022/01/05 06:23:39;;;;;;;5.90;1.98;;;3.50;99.90;;;;;;4927332;29;20202;-68
2022/01/05 06:26:07;;;;;;;4.95;1.58;;;3.50;99.90;;;;;;4934522;29;20261;-68
2022/01/05 06:28:34;;;;;;;8.40;1.70;;;3.50;99.90;;;;;;4927113;29;20670;-68
2022/01/05 06:31:00;;;;;;;2.45;1.33;;;3.50;99.90;;;;;;4934517;29;20301;-69
2022/01/05 06:33:27;;;;;;;1.85;1.20;;;3.50;99.90;;;;;;4926821;29;20237;-69
2022/01/05 06:35:54;;;;;;;3.60;1.60;;;3.50;99.90;;;;;;4934899;29;20281;-68
2022/01/05 06:38:21;;;;;;;3.00;1.75;;;3.50;99.90;;;;;;4933537;29;20206;-69
2022/01/05 06:40:47;;;;;;;2.45;1.40;;;3.50;99.90;;;;;;4934368;29;20226;-69
2022/01/05 06:43:15;;;;;;;5.63;1.83;;;3.50;99.90;;;;;;4932431;29;20200;-70
2022/01/05 06:45:42;;;;;;;7.32;2.35;;;3.50;99.90;;;;;;4934440;29;20591;-69
2022/01/05 06:48:09;;;;;;;7.82;1.55;;;3.50;99.90;;;;;;4933799;29;20269;-69
2022/01/05 06:50:36;;;;;;;8.30;2.22;;;3.50;99.90;;;;;;4919132;29;20230;-69
2022/01/05 06:53:02;;;;;;;6.22;1.38;;;3.40;99.90;;;;;;4922967;29;20245;-68
2022/01/05 06:55:29;;;;;;;2.65;1.40;;;3.40;99.90;;;;;;4933515;29;20241;-68
2022/01/05 06:57:56;;;;;;;4.20;1.70;;;3.40;99.90;;;;;;4933642;29;20558;-68
2022/01/05 07:00:26;;;;;;;1.60;1.48;;;3.40;99.90;;;;;;4930696;29;20678;-68
2022/01/05 07:02:52;;;;;;;5.32;1.33;;;3.40;99.90;;;;;;4929093;29;20666;-67
2022/01/05 07:05:19;;;;;;;6.72;1.30;;;3.40;99.90;;;;;;4920778;29;20198;-68
2022/01/05 07:07:46;;;;;;;9.27;2.08;;;3.40;99.90;;;;;;4930443;29;20274;-68
2022/01/05 07:10:13;;;;;;;4.82;3.35;;;3.40;99.90;;;;;;4915932;29;20210;-68
2022/01/05 07:12:40;;;;;;;5.85;2.95;;;3.40;99.90;;;;;;4930812;29;20277;-68
2022/01/05 07:15:08;;;;;;;6.70;1.83;;;3.40;99.90;;;;;;4921990;29;20663;-68
2022/01/05 07:17:36;;;;;;;8.00;3.95;;;3.40;99.90;;;;;;4925879;29;20663;-67
2022/01/05 07:20:05;;;;;;;3.55;2.00;;;3.40;99.90;;;;;;4933595;29;20210;-68
2022/01/05 07:22:32;;;;;;;4.88;2.63;;;3.40;99.90;;;;;;4933167;29;20298;-68
2022/01/05 07:24:58;;;;;;;2.85;2.58;;;3.40;99.90;;;;;;4932487;29;20588;-68
2022/01/05 07:27:25;;;;;;;2.38;2.03;;;3.40;99.90;;;;;;4931962;29;20245;-68
2022/01/05 07:29:52;;;;;;;4.30;1.90;;;3.30;99.90;;;;;;4930771;29;20314;-68
2022/01/05 07:32:19;;;;;;;6.30;2.42;;;3.40;99.90;;;;;;4918447;29;20711;-68
2022/01/05 07:34:47;;;;;;;5.28;1.58;;;3.40;99.90;;;;;;4921433;29;20218;-68
2022/01/05 07:37:13;;;;;;;4.53;2.20;;;3.40;99.90;;;;;;4913924;29;20266;-68
2022/01/05 07:39:41;;;;;;;2.50;1.58;;;3.40;99.90;;;;;;4914617;29;20210;-67
2022/01/05 07:42:09;;;;;;;3.03;1.10;;;3.40;99.90;;;;;;4915068;29;20230;-67
2022/01/05 07:44:35;;;;;;;4.55;1.55;;;3.40;99.90;;;;;;4926791;29;20253;-68
2022/01/05 07:47:02;;;;;;;8.73;2.05;;;3.40;99.90;;;;;;4931141;29;20211;-68
2022/01/05 07:49:29;;;;;;;4.13;2.03;;;3.40;99.90;;;;;;4926250;29;20207;-67
2022/01/05 07:51:57;;;;;;;7.07;2.10;;;3.40;99.90;;;;;;4914508;29;20640;-68
2022/01/05 07:54:24;;;;;;;11.93;2.47;;;3.40;99.90;;;;;;4922380;29;20233;-67
2022/01/05 07:56:50;;;;;;;2.28;1.60;;;3.30;99.90;;;;;;4933335;29;20811;-67
2022/01/05 07:59:17;;;;;;;5.28;2.15;;;3.30;99.90;;;;;;4932147;29;20210;-67
2022/01/05 08:01:44;;;;;;;3.17;2.55;;;3.30;99.90;;;;;;4932565;29;20238;-67
2022/01/05 08:04:10;;;;;;;2.88;2.58;;;3.40;99.90;;;;;;4932329;29;20201;-67
2022/01/05 08:06:37;;;;;;;4.53;2.40;;;3.40;99.90;;;;;;4932055;29;20206;-67
2022/01/05 08:09:05;;;;;;;6.43;2.28;;;3.50;99.90;;;;;;4923155;29;20745;-68
2022/01/05 08:11:32;;;;;;;2.72;2.53;;;3.50;99.90;;;;;;4930626;29;20325;-68
2022/01/05 08:13:58;;;;;;;2.08;1.50;;;3.50;99.90;;;;;;4915809;29;20230;-67
2022/01/05 08:16:25;;;;;;;3.35;2.10;;;3.60;99.90;;;;;;4933710;29;20214;-68
2022/01/05 08:18:52;;;;;;;4.50;2.05;;;3.60;99.90;;;;;;4933606;29;20237;-67
2022/01/05 08:21:19;;;;;;;4.13;1.45;;;3.70;99.90;;;;;;4932753;29;20238;-68
2022/01/05 08:23:46;;;;;;;2.10;1.90;;;3.70;99.90;;;;;;4933093;29;20296;-67
2022/01/05 08:26:14;;;;;;;2.38;1.65;;;3.80;99.90;;;;;;4930866;29;20206;-68
2022/01/05 08:28:41;;;;;;;10.05;2.70;;;3.80;99.90;;;;;;4937387;29;20238;-67
2022/01/05 08:31:08;;;;;;;3.17;1.80;;;3.80;99.90;;;;;;4934883;29;20289;-68
2022/01/05 08:33:35;;;;;;;4.90;1.70;;;3.80;99.90;;;;;;4936880;29;20233;-69
2022/01/05 08:36:02;;;;;;;4.03;2.15;;;3.80;99.90;;;;;;4936148;29;20202;-68
2022/01/05 08:38:28;;;;;;;3.78;2.50;;;3.90;99.90;;;;;;4920220;29;20205;-68
2022/01/05 08:40:55;;;;;;;11.85;2.63;;;4.00;99.90;;;;;;4933474;29;20233;-68
2022/01/05 08:43:23;;;;;;;4.60;2.50;;;4.00;99.90;;;;;;4936691;29;20202;-68
2022/01/05 08:45:50;;;;;;;4.05;1.60;;;4.20;99.90;;;;;;4930012;29;20233;-70
2022/01/05 08:48:17;;;;;;;2.17;1.67;;;4.30;99.90;;;;;;4928207;29;20277;-68
2022/01/05 08:50:44;;;;;;;5.65;2.30;;;4.30;99.90;;;;;;4934200;29;20233;-67
2022/01/05 08:53:11;;;;;;;4.78;1.73;;;4.40;99.90;;;;;;4931672;29;20226;-68
2022/01/05 08:55:40;;;;;;;3.97;3.65;;;4.40;99.90;;;;;;4933892;29;20319;-67
2022/01/05 08:58:08;;;;;;;8.35;1.60;;;4.30;99.90;;;;;;4936556;29;20209;-68
2022/01/05 09:00:37;;;;;;;11.10;2.75;;;4.30;99.90;;;;;;4927513;29;20238;-68
2022/01/05 09:03:05;;;;;;;2.58;2.05;;;4.20;99.90;;;;;;4917491;29;20207;-68
2022/01/05 09:05:32;;;;;;;3.50;2.25;;;4.10;99.90;;;;;;4923950;29;20819;-68
2022/01/05 09:07:59;;;;;;;4.75;2.83;;;4.10;99.90;;;;;;4935217;29;20217;-68
2022/01/05 09:10:26;;;;;;;5.03;2.10;;;4.00;99.90;;;;;;4929449;29;20206;-68
2022/01/05 09:12:53;;;;;;;4.07;1.90;;;4.00;99.90;;;;;;4917124;29;20258;-68
2022/01/05 09:15:20;;;;;;;4.25;2.05;;;4.00;99.90;;;;;;4930883;29;20206;-68
2022/01/05 09:17:48;;;;;;;5.43;2.55;;;4.00;99.90;;;;;;4936441;29;20396;-68
2022/01/05 09:20:14;;;;;;;11.30;2.63;;;4.00;99.90;;;;;;4935100;29;20276;-68
2022/01/05 09:22:41;;;;;;;5.78;4.05;;;4.00;99.90;;;;;;4935022;29;20197;-68
2022/01/05 09:25:10;;;;;;;6.95;2.63;;;4.00;99.90;;;;;;4935158;29;20206;-67
2022/01/05 09:27:38;;;;;;;3.83;3.08;;;4.10;99.90;;;;;;4935979;29;20301;-68
2022/01/05 09:30:07;;;;;;;7.28;2.58;;;4.10;99.90;;;;;;4935296;29;20213;-67
2022/01/05 09:32:34;;;;;;;4.72;2.80;;;4.10;99.90;;;;;;4935988;29;20234;-67
2022/01/05 09:35:02;;;;;;;19.00;8.75;;;4.10;99.90;;;;;;4918166;29;20230;-67
2022/01/05 09:37:34;;;;;;;4.93;2.65;;;4.00;99.90;;;;;;4929494;29;20221;-68
2022/01/05 09:42:44;;;;;;;6.80;4.72;;;4.00;99.90;;;;;;4916834;29;20217;-68
2022/01/05 09:45:20;;;;;;;6.20;3.28;;;4.00;99.90;;;;;;4933781;29;20214;-68
2022/01/05 09:48:17;;;;;;;3.83;2.40;;;4.00;99.90;;;;;;4935545;29;20655;-68
2022/01/05 09:50:51;;;;;;;6.85;2.85;;;4.00;99.90;;;;;;4917334;29;20546;-68
2022/01/05 09:53:18;;;;;;;13.23;7.07;;;4.00;99.90;;;;;;4933738;29;20230;-68
2022/01/05 09:55:47;;;;;;;5.15;3.45;;;4.10;99.90;;;;;;4915904;29;20845;-67
2022/01/05 09:58:15;;;;;;;5.40;2.70;;;4.10;99.90;;;;;;4916878;29;20648;-67
2022/01/05 10:00:42;;;;;;;4.22;3.70;;;4.10;99.90;;;;;;4935117;29;20285;-68
2022/01/05 10:03:10;;;;;;;3.17;2.60;;;4.10;99.90;;;;;;4935115;29;20784;-67
2022/01/05 10:05:36;;;;;;;2.95;2.75;;;4.20;99.90;;;;;;4934774;29;20210;-68
2022/01/05 10:08:06;;;;;;;6.75;2.80;;;4.20;99.90;;;;;;4935407;29;20265;-68
2022/01/05 10:10:33;;;;;;;3.53;2.90;;;4.20;99.90;;;;;;4929379;29;20239;-68
2022/01/05 10:13:00;;;;;;;4.00;3.33;;;4.20;99.90;;;;;;4922158;29;20207;-68
2022/01/05 10:15:27;;;;;;;2.75;2.55;;;4.30;99.90;;;;;;4924694;29;20210;-67
2022/01/05 10:18:09;;;;;;;3.65;3.35;;;4.30;99.90;;;;;;4921786;29;20210;-68
2022/01/05 10:20:35;;;;;;;3.88;3.30;;;4.30;99.90;;;;;;4934195;29;20229;-68
2022/01/05 10:23:05;;;;;;;4.55;2.85;;;4.30;99.90;;;;;;4934696;29;20220;-68
2022/01/05 10:25:32;;;;;;;3.75;3.45;;;4.30;99.90;;;;;;4917759;29;20222;-67
2022/01/05 10:28:01;;;;;;;3.67;3.30;;;4.30;99.90;;;;;;4922068;29;20213;-68
2022/01/05 10:32:47;;;;;;;5.47;4.13;;;4.40;99.90;;;;;;5085224;27;20562;-67
2022/01/05 10:35:16;;;;;;;5.22;3.33;;;4.50;99.90;;;;;;5083344;28;20208;-67
2022/01/05 10:37:44;;;;;;;14.23;4.43;;;4.50;99.90;;;;;;5085672;28;20204;-67
2022/01/05 10:40:19;;;;;;;6.45;4.57;;;4.50;99.90;;;;;;5085859;28;20633;-67
2022/01/05 10:42:47;;;;;;;3.88;3.60;;;4.50;99.90;;;;;;5066892;28;20633;-67
2022/01/05 10:45:16;;;;;;;8.98;4.07;;;4.50;99.90;;;;;;5067133;28;20214;-67
2022/01/05 10:48:00;;;;;;;4.60;4.00;;;4.50;99.90;;;;;;5064899;28;20205;-68
2022/01/05 10:50:28;;;;;;;8.77;4.60;;;4.60;99.90;;;;;;5066220;28;20580;-67
2022/01/05 10:52:58;;;;;;;6.53;4.25;;;4.60;99.90;;;;;;5067065;28;20197;-68
2022/01/05 10:55:26;;;;;;;6.50;4.78;;;4.60;99.90;;;;;;5066270;28;20251;-67
2022/01/05 10:57:58;;;;;;;7.78;3.83;;;4.70;99.90;;;;;;5066620;28;20732;-67
2022/01/05 11:00:37;;;;;;;10.00;4.93;;;4.70;99.90;;;;;;5060473;28;20660;-68
2022/01/05 11:03:21;;;;;;;8.93;5.22;;;4.70;99.90;;;;;;5067059;28;20255;-69
2022/01/05 11:06:06;;;;;;;5.30;4.80;;;4.80;99.90;;;;;;5067578;28;20665;-69
2022/01/05 11:08:33;;;;;;;4.57;4.20;;;4.80;99.90;;;;;;5067955;28;20202;-69
2022/01/05 11:11:00;;;;;;;5.15;3.28;;;4.90;99.90;;;;;;5053462;28;20226;-68
2022/01/05 11:13:27;;;;;;;3.90;3.20;;;4.80;99.90;;;;;;5067595;28;20232;-69
2022/01/05 11:15:58;;;;;;;8.27;6.45;;;4.80;99.90;;;;;;5063646;28;20281;-69
2022/01/05 11:18:30;;;;;;;10.95;5.47;;;4.80;99.90;;;;;;5066665;28;20285;-68
2022/01/05 11:21:02;;;;;;;6.63;4.25;;;4.80;99.90;;;;;;5048848;28;20337;-69
2022/01/05 11:23:31;;;;;;;5.22;4.72;;;4.80;99.90;;;;;;5068235;28;20222;-68
2022/01/05 11:26:00;;;;;;;3.10;2.90;;;4.80;99.90;;;;;;5067048;28;20221;-69
2022/01/05 11:28:28;;;;;;;9.23;7.00;;;4.80;99.90;;;;;;5066060;28;20201;-68
2022/01/05 11:30:57;;;;;;;4.97;3.63;;;4.80;99.90;;;;;;5063415;28;20237;-69
2022/01/05 11:33:24;;;;;;;12.60;8.70;;;4.80;99.90;;;;;;5064606;28;20198;-69
2022/01/05 11:35:51;;;;;;;3.42;3.22;;;4.80;99.90;;;;;;5066265;28;20206;-68
2022/01/05 11:38:19;;;;;;;10.05;5.38;;;4.80;99.90;;;;;;5063439;28;20210;-69
2022/01/05 11:40:48;;;;;;;3.97;3.58;;;4.70;99.90;;;;;;5065029;28;20221;-69
2022/01/05 11:43:23;;;;;;;2.97;2.88;;;4.70;99.90;;;;;;5056059;28;20213;-68
2022/01/05 11:45:50;;;;;;;2.67;2.45;;;4.80;99.90;;;;;;5037869;28;20201;-69
2022/01/05 11:48:23;;;;;;;7.20;2.42;;;4.80;99.90;;;;;;5052436;28;20202;-69
2022/01/05 11:50:51;;;;;;;2.67;2.47;;;4.80;99.90;;;;;;5052076;28;20224;-69
2022/01/05 11:53:34;;;;;;;2.22;2.22;;;4.90;99.90;;;;;;5052824;28;20209;-69
2022/01/05 11:56:12;;;;;;;2.88;2.78;;;4.90;99.90;;;;;;5052205;28;20551;-68
2022/01/05 11:58:51;;;;;;;6.47;3.50;;;5.00;99.90;;;;;;5050644;28;20202;-69
2022/01/05 12:01:33;;;;;;;2.88;2.70;;;5.00;99.90;;;;;;5051281;28;20233;-68
2022/01/05 12:04:05;;;;;;;4.30;2.67;;;4.90;99.90;;;;;;5048731;28;20576;-68
2022/01/05 12:06:34;;;;;;;2.55;2.05;;;4.90;99.90;;;;;;5051712;28;20206;-68
2022/01/05 12:09:04;;;;;;;2.08;1.85;;;4.80;99.90;;;;;;5040526;28;20214;-68
2022/01/05 12:11:34;;;;;;;1.73;1.73;;;4.70;99.90;;;;;;5051559;28;20236;-69
2022/01/05 12:14:02;;;;;;;2.22;1.75;;;4.70;99.90;;;;;;5051857;28;20289;-69
2022/01/05 12:16:29;;;;;;;1.90;1.75;;;4.60;99.90;;;;;;5051503;28;20228;-68
2022/01/05 12:19:07;;;;;;;1.30;1.30;;;4.70;99.90;;;;;;5051509;28;20198;-68
2022/01/05 12:21:44;;;;;;;2.03;1.92;;;4.60;99.90;;;;;;5052127;28;20217;-69
2022/01/05 12:24:13;;;;;;;1.63;1.63;;;4.50;99.90;;;;;;5050798;28;20206;-68
2022/01/05 12:26:41;;;;;;;4.20;1.50;;;4.40;99.90;;;;;;5052311;28;20674;-68
2022/01/05 12:29:08;;;;;;;1.77;1.60;;;4.40;99.90;;;;;;5042562;28;20596;-68
2022/01/05 12:31:54;;;;;;;1.83;1.70;;;4.40;99.90;;;;;;5050915;28;20816;-68
2022/01/05 12:34:54;;;;;;;1.70;1.70;;;4.40;99.90;;;;;;5051882;28;20202;-68
2022/01/05 12:37:40;;;;;;;1.40;1.40;;;4.40;99.90;;;;;;5052082;28;20223;-68
2022/01/05 12:40:29;;;;;;;1.83;1.73;;;4.30;99.90;;;;;;5051546;28;20202;-68
2022/01/05 12:43:34;;;;;;;2.10;2.00;;;4.30;99.90;;;;;;5045994;28;20251;-68
2022/01/05 12:46:11;;;;;;;3.53;3.33;;;4.40;99.90;;;;;;5048108;28;20201;-68
2022/01/05 12:49:01;;;;;;;2.65;2.45;;;4.40;99.90;;;;;;5052363;28;20284;-68
2022/01/05 12:51:46;;;;;;;3.00;2.80;;;4.40;99.90;;;;;;5031741;28;20453;-68
2022/01/05 12:54:18;;;;;;;2.42;2.22;;;4.40;99.90;;;;;;5037792;28;20621;-68
2022/01/05 12:56:48;;;;;;;2.50;2.20;;;4.40;99.90;;;;;;5052538;28;20309;-68
2022/01/05 12:59:17;;;;;;;2.05;1.95;;;4.40;99.90;;;;;;5051631;28;20238;-68
2022/01/05 13:01:45;;;;;;;3.00;2.83;;;4.40;99.90;;;;;;5045744;28;20217;-68
2022/01/05 13:04:13;;;;;;;1.95;1.85;;;4.40;99.90;;;;;;5051377;28;20197;-68
2022/01/05 13:06:42;;;;;;;1.20;1.20;;;4.40;99.90;;;;;;5051601;28;20293;-68
2022/01/05 13:09:12;;;;;;;1.20;1.20;;;4.40;99.90;;;;;;5050390;28;20202;-68
2022/01/05 13:11:41;;;;;;;1.35;1.35;;;4.40;99.90;;;;;;5051204;28;20702;-68
2022/01/05 13:14:17;;;;;;;2.33;1.42;;;4.40;99.90;;;;;;5050542;28;20202;-68
2022/01/05 13:16:45;;;;;;;1.70;1.70;;;4.40;99.90;;;;;;5046296;28;20205;-68
2022/01/05 13:19:32;;;;;;;1.63;1.52;;;4.40;99.90;;;;;;5050770;28;20198;-68
2022/01/05 13:22:01;;;;;;;1.65;1.55;;;4.40;99.90;;;;;;5051431;28;20225;-68
2022/01/05 13:24:46;;;;;;;1.90;1.90;;;4.40;99.90;;;;;;5050251;28;20206;-68
2022/01/05 13:27:15;;;;;;;2.35;2.15;;;4.40;99.90;;;;;;5050849;28;20206;-68
2022/01/05 13:29:44;;;;;;;1.83;1.73;;;4.40;99.90;;;;;;5049704;28;20206;-70
2022/01/05 13:32:13;;;;;;;2.42;2.30;;;4.40;99.90;;;;;;5049163;28;20233;-69
2022/01/05 13:34:41;;;;;;;1.80;1.80;;;4.50;99.90;;;;;;5050320;28;20202;-68
2022/01/05 13:37:09;;;;;;;1.90;1.77;;;4.50;99.90;;;;;;5049079;28;20282;-67
2022/01/05 13:39:41;;;;;;;1.50;1.50;;;4.50;99.90;;;;;;5049319;28;20697;-68
2022/01/05 13:42:11;;;;;;;1.45;1.45;;;4.50;99.90;;;;;;5049788;28;20619;-68
2022/01/05 13:44:39;;;;;;;1.90;1.90;;;4.50;99.90;;;;;;5049769;28;20209;-67
2022/01/05 13:47:10;;;;;;;2.08;1.90;;;4.50;99.90;;;;;;5050088;28;20206;-67
2022/01/05 13:49:37;;;;;;;1.83;1.73;;;4.40;99.90;;;;;;5047699;28;20201;-67
2022/01/05 13:52:05;;;;;;;1.65;1.50;;;4.40;99.90;;;;;;5049918;28;20861;-68
2022/01/05 13:54:34;;;;;;;1.42;1.42;;;4.40;99.90;;;;;;5049426;28;20205;-67
2022/01/05 13:57:01;;;;;;;1.65;1.65;;;4.40;99.90;;;;;;5049867;28;20221;-68
2022/01/05 13:59:44;;;;;;;1.85;1.75;;;4.30;99.90;;;;;;5050034;28;20502;-67
2022/01/05 14:02:13;;;;;;;2.50;2.05;;;4.20;99.90;;;;;;5049514;28;20236;-66
2022/01/05 14:04:55;;;;;;;1.88;1.85;;;4.20;99.90;;;;;;5049638;28;20201;-66
2022/01/05 14:07:24;;;;;;;3.05;2.20;;;4.10;99.90;;;;;;5050319;28;20201;-66
2022/01/05 14:10:09;;;;;;;2.13;2.00;;;4.10;99.90;;;;;;5049290;28;20201;-66
2022/01/05 14:12:39;;;;;;;1.83;1.73;;;4.10;99.90;;;;;;5049239;28;20221;-66
2022/01/05 14:15:08;;;;;;;2.05;2.00;;;4.10;99.90;;;;;;5048559;28;20224;-66
2022/01/05 14:17:37;;;;;;;2.38;2.17;;;4.20;99.90;;;;;;5049607;28;20216;-66
2022/01/05 14:20:18;;;;;;;3.08;2.65;;;4.20;99.90;;;;;;5047706;28;20553;-66
2022/01/05 14:22:57;;;;;;;2.95;2.65;;;4.20;99.90;;;;;;5047719;28;20217;-65
2022/01/05 14:25:32;;;;;;;3.35;2.90;;;4.10;99.90;;;;;;5049227;28;20213;-65
2022/01/05 14:27:59;;;;;;;2.72;2.63;;;4.10;99.90;;;;;;5046561;28;20228;-66
2022/01/05 14:30:31;;;;;;;1.85;1.85;;;4.20;99.90;;;;;;5048303;28;20198;-66
2022/01/05 14:32:59;;;;;;;2.95;2.85;;;4.20;99.90;;;;;;5049902;28;20578;-66
2022/01/05 14:35:29;;;;;;;2.85;2.65;;;4.30;99.90;;;;;;5049873;28;20618;-66
2022/01/05 14:37:58;;;;;;;2.97;2.30;;;4.30;99.90;;;;;;5049912;28;20264;-66
2022/01/05 14:40:28;;;;;;;2.13;2.03;;;4.40;99.90;;;;;;5049499;28;20216;-67
2022/01/05 14:42:56;;;;;;;2.22;2.22;;;4.40;99.90;;;;;;5049314;28;20213;-67
2022/01/05 14:45:23;;;;;;;2.50;2.30;;;4.40;99.90;;;;;;5048727;28;20549;-67
2022/01/05 14:47:50;;;;;;;2.30;2.20;;;4.40;99.90;;;;;;5050080;28;20209;-68
2022/01/05 14:50:18;;;;;;;2.47;2.20;;;4.30;99.90;;;;;;5048398;28;20709;-65
2022/01/05 14:52:46;;;;;;;3.95;2.47;;;4.30;99.90;;;;;;5049071;28;20221;-68
2022/01/05 14:55:14;;;;;;;4.05;2.22;;;4.40;99.90;;;;;;5040318;28;20225;-67
2022/01/05 14:57:40;;;;;;;9.25;4.05;;;4.40;99.90;;;;;;5049840;28;20202;-67
2022/01/05 15:00:09;;;;;;;8.68;3.50;;;4.40;99.90;;;;;;5039439;28;20306;-64
2022/01/05 15:02:36;;;;;;;3.95;2.35;;;4.40;99.90;;;;;;5043783;28;20222;-67
2022/01/05 15:05:03;;;;;;;6.13;3.10;;;4.40;99.90;;;;;;5034406;28;20207;-67
2022/01/05 15:07:32;;;;;;;7.03;2.50;;;4.40;99.90;;;;;;5047526;28;20237;-67
2022/01/05 15:09:59;;;;;;;8.68;2.92;;;4.40;99.90;;;;;;5044642;28;20248;-67
2022/01/05 15:12:26;;;;;;;4.00;2.80;;;4.40;99.90;;;;;;5043077;28;20238;-66
2022/01/05 15:14:52;;;;;;;6.97;3.55;;;4.40;99.90;;;;;;5040696;28;20221;-68
2022/01/05 15:17:19;;;;;;;6.40;3.28;;;4.40;99.90;;;;;;5039094;28;20785;-67
2022/01/05 15:19:46;;;;;;;5.38;3.28;;;4.50;99.90;;;;;;5045971;28;20553;-67
2022/01/05 15:22:13;;;;;;;3.40;2.80;;;4.40;99.90;;;;;;5038396;28;20222;-66
2022/01/05 15:24:41;;;;;;;5.20;3.28;;;4.50;99.90;;;;;;5032816;28;20199;-67
2022/01/05 15:27:09;;;;;;;9.18;3.30;;;4.50;99.90;;;;;;5045113;28;20256;-67
2022/01/05 15:29:38;;;;;;;6.43;3.03;;;4.50;99.90;;;;;;5050696;28;20674;-66
2022/01/05 15:32:06;;;;;;;5.50;3.20;;;4.50;99.90;;;;;;5052167;28;20233;-67
2022/01/05 15:34:33;;;;;;;8.07;2.63;;;4.50;99.90;;;;;;5033359;28;20218;-67
2022/01/05 15:37:00;;;;;;;5.63;2.95;;;4.50;99.90;;;;;;5033388;28;20698;-67
2022/01/05 15:39:27;;;;;;;6.13;3.13;;;4.60;99.90;;;;;;5046302;28;20220;-67
2022/01/05 15:41:55;;;;;;;12.00;3.72;;;4.60;99.90;;;;;;5052278;28;20592;-67
2022/01/05 15:44:23;;;;;;;7.15;2.47;;;4.60;99.90;;;;;;5038396;28;20214;-68
2022/01/05 15:46:50;;;;;;;7.50;4.68;;;4.60;99.90;;;;;;5045530;28;20201;-68
2022/01/05 15:49:17;;;;;;;13.15;5.25;;;4.60;99.90;;;;;;5050044;28;20203;-68
2022/01/05 15:51:46;;;;;;;15.48;7.40;;;4.60;99.90;;;;;;5050409;28;20343;-67
2022/01/05 15:54:13;;;;;;;10.18;4.22;;;4.60;99.90;;;;;;5052159;28;20234;-66
2022/01/05 15:56:46;;;;;;;7.28;3.90;;;4.60;99.90;;;;;;5049403;28;20571;-67
2022/01/05 16:02:03;;;;;;;9.20;4.82;;;4.50;99.90;;;;;;5052131;28;20232;-67
2022/01/05 16:04:31;;;;;;;6.85;2.85;;;4.50;99.90;;;;;;5050353;28;20260;-68
2022/01/05 16:06:58;;;;;;;6.45;2.47;;;4.50;99.90;;;;;;5049499;28;20206;-68
2022/01/05 16:09:24;;;;;;;10.85;2.53;;;4.50;99.90;;;;;;5051699;28;20208;-68
2022/01/05 16:11:52;;;;;;;8.40;3.35;;;4.50;99.90;;;;;;5047723;28;20277;-67
2022/01/05 16:14:20;;;;;;;15.85;2.78;;;4.50;99.90;;;;;;5052551;28;20366;-68
2022/01/05 16:16:48;;;;;;;9.38;2.90;;;4.50;99.90;;;;;;5052528;28;20202;-67
2022/01/05 16:19:14;;;;;;;6.18;2.70;;;4.50;99.90;;;;;;5052050;28;20225;-68
2022/01/05 16:21:41;;;;;;;5.85;2.10;;;4.40;99.90;;;;;;5052119;28;20229;-68
2022/01/05 16:24:10;;;;;;;10.77;3.30;;;4.40;99.90;;;;;;5051477;28;20624;-68
2022/01/05 16:26:37;;;;;;;18.23;4.13;;;4.40;99.90;;;;;;5051747;28;20202;-67
2022/01/05 16:29:04;;;;;;;4.53;2.78;;;4.40;99.90;;;;;;5046981;28;20202;-66
2022/01/05 16:31:33;;;;;;;9.52;2.65;;;4.30;99.90;;;;;;5051271;28;20279;-67
2022/01/05 16:34:00;;;;;;;6.80;4.82;;;4.30;99.90;;;;;;5052294;28;20622;-67
2022/01/05 16:36:26;;;;;;;7.15;2.20;;;4.30;99.90;;;;;;5051406;28;20202;-67
2022/01/05 16:38:53;;;;;;;9.55;3.40;;;4.30;99.90;;;;;;5051912;28;20206;-67
2022/01/05 16:41:20;;;;;;;13.48;3.10;;;4.30;99.90;;;;;;5050665;28;20233;-66
2022/01/05 16:43:46;;;;;;;10.95;3.38;;;4.30;99.90;;;;;;5051889;28;20209;-67
2022/01/05 16:46:16;;;;;;;9.95;4.03;;;4.30;99.90;;;;;;5051530;28;20193;-67
2022/01/05 16:48:44;;;;;;;16.60;3.38;;;4.30;99.90;;;;;;5052270;28;20297;-67
2022/01/05 16:51:12;;;;;;;8.95;3.05;;;4.30;99.90;;;;;;5051106;28;20709;-68
2022/01/05 16:53:39;;;;;;;8.05;3.45;;;4.30;99.90;;;;;;5051343;28;21013;-67
2022/01/05 16:56:06;;;;;;;4.72;2.75;;;4.30;99.90;;;;;;5049329;28;20226;-68
2022/01/05 17:01:17;;;;;;;4.97;2.53;;;4.20;99.90;;;;;;5043801;28;20248;-68
2022/01/05 17:03:45;;;;;;;8.07;4.10;;;4.20;99.90;;;;;;5052625;28;20194;-68
2022/01/05 17:06:12;;;;;;;12.45;4.45;;;4.20;99.90;;;;;;5052193;28;20603;-68
2022/01/05 17:08:40;;;;;;;14.90;3.72;;;4.10;99.90;;;;;;5052359;28;20213;-67
2022/01/05 17:11:07;;;;;;;6.45;2.90;;;4.10;99.90;;;;;;5049707;28;20287;-67
2022/01/05 17:13:33;;;;;;;9.80;4.80;;;4.10;99.90;;;;;;5049369;28;20221;-67
2022/01/05 17:16:00;;;;;;;4.40;3.15;;;4.00;99.90;;;;;;5048081;28;20292;-68
2022/01/05 17:18:27;;;;;;;10.18;3.15;;;4.00;99.90;;;;;;5049487;28;20213;-67
2022/01/05 17:20:55;;;;;;;8.23;2.60;;;4.00;99.90;;;;;;5050966;28;20632;-67
2022/01/05 17:23:22;;;;;;;7.97;2.58;;;4.00;99.90;;;;;;5048734;28;20671;-67
2022/01/05 17:25:50;;;;;;;7.18;4.10;;;4.00;99.90;;;;;;5045366;28;20304;-67
2022/01/05 17:28:17;;;;;;;7.10;3.35;;;4.00;99.90;;;;;;5046741;28;20654;-66
2022/01/05 17:30:44;;;;;;;9.13;4.32;;;4.00;99.90;;;;;;5050685;28;20781;-68
2022/01/05 17:33:12;;;;;;;7.45;3.83;;;4.00;99.90;;;;;;5046963;28;20720;-67
2022/01/05 17:35:38;;;;;;;7.03;3.10;;;4.00;99.90;;;;;;5040137;28;20210;-68
2022/01/05 17:38:08;;;;;;;7.32;3.42;;;4.00;99.90;;;;;;5051130;28;20198;-67
2022/01/05 17:40:34;;;;;;;8.32;3.40;;;4.00;99.90;;;;;;5047694;28;20198;-68
2022/01/05 17:43:01;;;;;;;14.30;4.65;;;4.00;99.90;;;;;;5051803;28;20201;-68
2022/01/05 17:45:28;;;;;;;7.13;3.47;;;4.00;99.90;;;;;;5041899;28;20682;-68
2022/01/05 17:47:55;;;;;;;10.45;5.53;;;4.00;99.90;;;;;;5031592;28;21108;-67
2022/01/05 17:50:21;;;;;;;5.32;3.35;;;4.10;99.90;;;;;;5038183;28;20201;-69
2022/01/05 17:52:48;;;;;;;7.78;4.22;;;4.10;99.90;;;;;;5051362;28;20201;-68
2022/01/05 17:55:16;;;;;;;11.07;5.10;;;4.10;99.90;;;;;;5049519;28;20689;-68
2022/01/05 17:57:43;;;;;;;8.15;3.40;;;4.10;99.90;;;;;;5051499;28;20204;-67
2022/01/05 18:00:10;;;;;;;7.65;3.80;;;4.10;99.90;;;;;;5044979;28;20888;-67
2022/01/05 18:02:38;;;;;;;12.73;5.72;;;4.20;99.90;;;;;;5050484;28;20587;-67
2022/01/05 18:05:06;;;;;;;9.75;4.00;;;4.30;99.90;;;;;;5050025;28;20206;-67
2022/01/05 18:07:32;;;;;;;9.73;4.47;;;4.30;99.90;;;;;;5046093;28;20573;-67
2022/01/05 18:09:59;;;;;;;11.98;4.78;;;4.30;99.90;;;;;;5046845;28;20210;-67
2022/01/05 18:12:27;;;;;;;12.07;4.85;;;4.30;99.90;;;;;;5050080;28;20222;-66
2022/01/05 18:14:54;;;;;;;8.57;3.97;;;4.40;99.90;;;;;;5049721;28;20693;-67